createdAt,value
2022-09-16T10:29:15.997Z,22.60
2022-09-16T10:31:44.309Z,22.30
2022-09-16T10:34:17.050Z,22.00
2022-09-16T10:36:45.133Z,21.60
2022-09-16T10:39:22.802Z,21.10
2022-09-16T10:42:00.023Z,20.60
2022-09-16T10:44:30.786Z,20.30
2022-09-16T10:47:02.569Z,20.20
2022-09-16T10:49:36.515Z,20.20
2022-09-16T10:52:18.880Z,20.50
2022-09-16T10:54:56.635Z,20.70
2022-09-16T10:57:31.644Z,20.80
2022-09-16T11:00:15.066Z,20.80
2022-09-16T11:02:52.495Z,20.70
2022-09-16T11:05:26.093Z,20.60
2022-09-16T11:07:58.438Z,20.60
2022-09-16T11:10:29.641Z,20.80
2022-09-16T11:13:12.657Z,21.10
2022-09-16T11:15:48.327Z,21.20
2022-09-16T11:18:23.031Z,21.30
2022-09-16T11:21:02.500Z,21.50
2022-09-16T11:23:39.282Z,21.70
2022-09-16T11:26:11.833Z,22.00
2022-09-16T11:28:47.647Z,22.10
2022-09-16T11:31:20.612Z,22.30
2022-09-16T11:33:50.664Z,22.60
2022-09-16T11:36:24.310Z,22.90
2022-09-16T11:38:58.603Z,23.20
2022-09-16T11:41:30.911Z,23.40
2022-09-16T11:44:16.469Z,23.50
2022-09-16T11:46:49.992Z,23.70
2022-09-16T11:49:24.416Z,23.80
2022-09-16T11:51:58.375Z,23.70
2022-09-16T11:54:34.195Z,23.80
2022-09-16T11:57:04.561Z,24.10
2022-09-16T11:59:36.210Z,24.40
2022-09-16T12:02:13.889Z,24.60
2022-09-16T12:04:45.056Z,24.40
2022-09-16T12:07:15.195Z,24.00
2022-09-16T12:09:44.861Z,23.60
2022-09-16T12:12:14.550Z,23.30
2022-09-16T12:14:43.722Z,22.90
2022-09-16T12:17:15.740Z,22.50
2022-09-16T12:19:44.982Z,22.40
2022-09-16T12:22:17.110Z,22.30
2022-09-16T12:24:48.113Z,22.20
2022-09-16T12:27:20.975Z,22.00
2022-09-16T12:29:50.973Z,21.80
2022-09-16T12:32:22.761Z,21.60
2022-09-16T12:34:55.453Z,21.60
2022-09-16T12:37:30.894Z,21.50
2022-09-16T12:39:58.711Z,21.50
2022-09-16T12:42:46.593Z,21.50
2022-09-16T12:45:21.826Z,21.50
2022-09-16T12:48:03.538Z,21.50
2022-09-16T12:50:49.880Z,21.60
2022-09-16T12:53:29.066Z,21.80
2022-09-16T12:56:01.917Z,22.30
2022-09-16T12:58:50.808Z,22.70
2022-09-16T13:01:21.404Z,23.00
2022-09-16T13:03:53.010Z,23.40
2022-09-16T13:06:23.613Z,23.60
2022-09-16T13:08:52.190Z,23.70
2022-09-16T13:12:16.648Z,23.90
2022-09-16T13:14:21.076Z,23.90
2022-09-16T13:16:53.568Z,23.90
2022-09-16T13:19:39.041Z,23.90
2022-09-16T13:22:15.946Z,24.00
2022-09-16T13:24:45.959Z,24.20
2022-09-16T13:27:27.498Z,24.20
2022-09-16T13:30:07.551Z,24.00
2022-09-16T13:32:39.148Z,23.60
2022-09-16T13:35:22.029Z,23.40
2022-09-16T13:37:51.783Z,23.30
2022-09-16T13:40:21.281Z,23.30
2022-09-16T13:42:49.319Z,23.00
2022-09-16T13:45:35.153Z,22.60
2022-09-16T13:48:07.016Z,22.30
2022-09-16T13:50:35.583Z,22.20
2022-09-16T13:53:11.442Z,22.20
2022-09-16T13:55:41.192Z,22.40
2022-09-16T13:58:14.336Z,22.70
2022-09-16T14:00:47.028Z,23.00
2022-09-16T14:03:25.134Z,23.20
2022-09-16T14:06:01.125Z,23.30
2022-09-16T14:08:34.550Z,23.30
2022-09-16T14:11:03.059Z,23.00
2022-09-16T14:13:35.868Z,22.60
2022-09-16T14:16:03.794Z,22.40
2022-09-16T14:18:32.509Z,22.20
2022-09-16T14:21:03.169Z,22.10
2022-09-16T14:23:33.570Z,22.20
2022-09-16T14:26:10.376Z,22.30
2022-09-16T14:28:39.404Z,22.50
2022-09-16T14:31:08.476Z,22.70
2022-09-16T14:33:37.551Z,23.00
2022-09-16T14:36:10.780Z,23.10
2022-09-16T14:38:46.113Z,23.20
2022-09-16T14:41:20.090Z,23.20
2022-09-16T14:43:47.837Z,23.30
2022-09-16T14:46:17.180Z,23.10
2022-09-16T14:48:45.332Z,22.90
2022-09-16T14:51:22.739Z,22.60
2022-09-16T14:54:15.242Z,22.30
2022-09-16T14:56:55.195Z,22.00
2022-09-16T14:59:26.553Z,21.80
2022-09-16T15:01:59.102Z,21.80
2022-09-16T15:04:36.582Z,21.70
2022-09-16T15:07:11.799Z,21.90
2022-09-16T15:09:44.414Z,22.10
2022-09-16T15:12:20.421Z,22.10
2022-09-16T15:14:49.814Z,22.10
2022-09-16T15:17:22.297Z,22.00
2022-09-16T15:19:52.955Z,21.90
2022-09-16T15:22:21.387Z,21.80
2022-09-16T15:24:52.755Z,21.60
2022-09-16T15:27:32.272Z,21.40
2022-09-16T15:30:05.716Z,21.30
2022-09-16T15:32:43.674Z,21.30
2022-09-16T15:35:13.358Z,21.20
2022-09-16T15:37:41.092Z,21.20
2022-09-16T15:40:20.756Z,21.20
2022-09-16T15:42:49.342Z,21.10
2022-09-16T15:45:19.828Z,20.90
2022-09-16T15:47:53.005Z,20.90
2022-09-16T15:50:22.016Z,20.90
2022-09-16T15:52:53.296Z,21.00
2022-09-16T15:55:35.043Z,21.00
2022-09-16T15:58:04.960Z,21.10
2022-09-16T16:00:53.715Z,21.20
2022-09-16T16:03:21.599Z,21.20
2022-09-16T16:05:51.656Z,21.20
2022-09-16T16:08:34.312Z,21.10
2022-09-16T16:11:09.007Z,21.10
2022-09-16T16:13:36.766Z,21.00
2022-09-16T16:16:05.123Z,20.80
2022-09-16T16:18:34.095Z,20.60
2022-09-16T16:21:05.689Z,20.50
2022-09-16T16:23:33.636Z,20.40
2022-09-16T16:26:01.496Z,20.30
2022-09-16T16:28:30.978Z,20.30
2022-09-16T16:31:08.670Z,20.20
2022-09-16T16:33:36.460Z,20.10
2022-09-16T16:36:05.308Z,20.10
2022-09-16T16:38:33.029Z,19.90
2022-09-16T16:41:00.763Z,19.80
2022-09-16T16:43:31.236Z,19.70
2022-09-16T16:45:59.057Z,19.70
2022-09-16T16:48:27.978Z,19.70
2022-09-16T16:50:56.485Z,19.60
2022-09-16T16:53:24.283Z,19.60
2022-09-16T16:55:52.107Z,19.50
2022-09-16T16:58:20.136Z,19.50
2022-09-16T17:00:49.554Z,19.40
2022-09-16T17:03:17.384Z,19.30
2022-09-16T17:05:45.184Z,19.30
2022-09-16T17:08:12.971Z,19.10
2022-09-16T17:10:41.548Z,19.10
2022-09-16T17:13:09.468Z,19.00
2022-09-16T17:15:37.303Z,18.90
2022-09-16T17:18:06.725Z,18.70
2022-09-16T17:20:34.461Z,18.50
2022-09-16T17:23:02.348Z,18.20
2022-09-16T17:25:30.256Z,18.00
2022-09-16T17:27:58.120Z,17.80
2022-09-16T17:30:25.921Z,17.60
2022-09-16T17:32:53.659Z,17.60
2022-09-16T17:35:22.756Z,17.40
2022-09-16T17:37:50.497Z,17.40
2022-09-16T17:40:18.310Z,17.30
2022-09-16T17:42:49.583Z,17.30
2022-09-16T17:45:17.505Z,17.10
2022-09-16T17:47:45.325Z,17.10
2022-09-16T17:50:14.001Z,17.10
2022-09-16T17:52:43.279Z,17.00
2022-09-16T17:55:11.039Z,17.00
